sensor_id;sensor_type;location;lat;lon;timestamp;pressure;altitude;pressure_sealevel;temperature;humidity
55418;BME280;41287;47.554;7.844;2023-02-20T00:01:35;99255.84;;;16.51;62.22
55418;BME280;41287;47.554;7.844;2023-02-20T00:04:00;99253.16;;;16.51;62.47
55418;BME280;41287;47.554;7.844;2023-02-20T00:06:25;99250.44;;;16.51;62.31
55418;BME280;41287;47.554;7.844;2023-02-20T00:08:51;99252.38;;;16.51;62.48
55418;BME280;41287;47.554;7.844;2023-02-20T00:11:17;99253.16;;;16.51;62.47
55418;BME280;41287;47.554;7.844;2023-02-20T00:13:46;99250.44;;;16.51;62.38
55418;BME280;41287;47.554;7.844;2023-02-20T00:16:12;99255.84;;;16.51;62.40
55418;BME280;41287;47.554;7.844;2023-02-20T00:18:38;99250.44;;;16.51;62.40
55418;BME280;41287;47.554;7.844;2023-02-20T00:21:05;99258.56;;;16.51;62.33
55418;BME280;41287;47.554;7.844;2023-02-20T00:23:34;99258.56;;;16.51;62.37
55418;BME280;41287;47.554;7.844;2023-02-20T00:26:00;99267.50;;;16.52;62.38
55418;BME280;41287;47.554;7.844;2023-02-20T00:28:27;99255.84;;;16.51;62.45
55418;BME280;41287;47.554;7.844;2023-02-20T00:30:54;99258.56;;;16.51;62.47
55418;BME280;41287;47.554;7.844;2023-02-20T00:33:19;99270.19;;;16.52;62.47
55418;BME280;41287;47.554;7.844;2023-02-20T00:35:44;99272.91;;;16.52;62.45
55418;BME280;41287;47.554;7.844;2023-02-20T00:38:09;99262.88;;;16.52;62.43
55418;BME280;41287;47.554;7.844;2023-02-20T00:40:37;99268.59;;;16.51;62.38
55418;BME280;41287;47.554;7.844;2023-02-20T00:43:02;99272.09;;;16.51;62.52
55418;BME280;41287;47.554;7.844;2023-02-20T00:45:28;99278.31;;;16.52;62.36
55418;BME280;41287;47.554;7.844;2023-02-20T00:47:53;99267.50;;;16.52;62.41
55418;BME280;41287;47.554;7.844;2023-02-20T00:50:18;99264.78;;;16.52;62.28
55418;BME280;41287;47.554;7.844;2023-02-20T00:52:44;99260.97;;;16.53;62.41
55418;BME280;41287;47.554;7.844;2023-02-20T00:55:10;99265.59;;;16.52;62.43
55418;BME280;41287;47.554;7.844;2023-02-20T00:57:35;99267.50;;;16.52;62.38
55418;BME280;41287;47.554;7.844;2023-02-20T01:00:01;99264.50;;;16.53;62.46
55418;BME280;41287;47.554;7.844;2023-02-20T01:02:26;99267.22;;;16.53;62.44
55418;BME280;41287;47.554;7.844;2023-02-20T01:04:52;99268.28;;;16.52;62.48
55418;BME280;41287;47.554;7.844;2023-02-20T01:07:17;99269.09;;;16.53;62.34
55418;BME280;41287;47.554;7.844;2023-02-20T01:09:43;99262.88;;;16.52;62.23
55418;BME280;41287;47.554;7.844;2023-02-20T01:12:08;99264.50;;;16.53;62.44
55418;BME280;41287;47.554;7.844;2023-02-20T01:14:34;99266.41;;;16.53;62.19
55418;BME280;41287;47.554;7.844;2023-02-20T01:17:01;99275.31;;;16.53;62.34
55418;BME280;41287;47.554;7.844;2023-02-20T01:19:27;99269.91;;;16.53;62.31
55418;BME280;41287;47.554;7.844;2023-02-20T01:21:52;99272.63;;;16.53;62.38
55418;BME280;41287;47.554;7.844;2023-02-20T01:24:20;99260.97;;;16.53;62.37
55418;BME280;41287;47.554;7.844;2023-02-20T01:26:48;99259.91;;;16.54;62.48
55418;BME280;41287;47.554;7.844;2023-02-20T01:29:14;99258.00;;;16.54;62.39
55418;BME280;41287;47.554;7.844;2023-02-20T01:31:46;99256.38;;;16.53;62.36
55418;BME280;41287;47.554;7.844;2023-02-20T01:34:11;99259.09;;;16.53;62.48
55418;BME280;41287;47.554;7.844;2023-02-20T01:36:43;99258.00;;;16.54;62.35
55418;BME280;41287;47.554;7.844;2023-02-20T01:39:09;99253.69;;;16.53;62.37
55418;BME280;41287;47.554;7.844;2023-02-20T01:41:34;99251.78;;;16.54;62.28
55418;BME280;41287;47.554;7.844;2023-02-20T01:43:59;99253.69;;;16.53;62.46
55418;BME280;41287;47.554;7.844;2023-02-20T01:49:09;99252.06;;;16.52;62.38
55418;BME280;41287;47.554;7.844;2023-02-20T01:51:39;99258.28;;;16.53;62.35
55418;BME280;41287;47.554;7.844;2023-02-20T01:54:07;99252.59;;;16.54;62.48
55418;BME280;41287;47.554;7.844;2023-02-20T01:56:34;99253.69;;;16.53;62.29
55418;BME280;41287;47.554;7.844;2023-02-20T01:58:59;99249.88;;;16.54;62.45
55418;BME280;41287;47.554;7.844;2023-02-20T02:01:26;99253.69;;;16.53;62.46
55418;BME280;41287;47.554;7.844;2023-02-20T02:04:07;99249.34;;;16.52;62.46
55418;BME280;41287;47.554;7.844;2023-02-20T02:06:37;99245.56;;;16.53;62.45
55418;BME280;41287;47.554;7.844;2023-02-20T02:09:11;99252.59;;;16.54;62.35
55418;BME280;41287;47.554;7.844;2023-02-20T02:11:40;99250.97;;;16.53;62.44
55418;BME280;41287;47.554;7.844;2023-02-20T02:14:06;99253.69;;;16.53;62.50
55418;BME280;41287;47.554;7.844;2023-02-20T02:16:56;99258.28;;;16.53;62.47
55418;BME280;41287;47.554;7.844;2023-02-20T02:20:03;99260.19;;;16.52;62.43
55418;BME280;41287;47.554;7.844;2023-02-20T02:36:46;99261.28;;;16.51;62.36
55418;BME280;41287;47.554;7.844;2023-02-20T02:39:24;99258.28;;;16.53;62.42
55418;BME280;41287;47.554;7.844;2023-02-20T02:42:07;99249.34;;;16.52;62.39
55418;BME280;41287;47.554;7.844;2023-02-20T02:44:46;99246.66;;;16.52;62.48
55418;BME280;41287;47.554;7.844;2023-02-20T02:47:52;99253.69;;;16.53;62.59
55418;BME280;41287;47.554;7.844;2023-02-20T02:50:22;99254.47;;;16.54;62.44
55418;BME280;41287;47.554;7.844;2023-02-20T02:52:49;99250.97;;;16.53;62.27
55418;BME280;41287;47.554;7.844;2023-02-20T02:55:22;99249.06;;;16.54;62.36
55418;BME280;41287;47.554;7.844;2023-02-20T02:57:50;99242.84;;;16.53;62.52
55418;BME280;41287;47.554;7.844;2023-02-20T03:00:23;99238.25;;;16.54;62.45
55418;BME280;41287;47.554;7.844;2023-02-20T03:03:08;99238.25;;;16.54;62.56
55418;BME280;41287;47.554;7.844;2023-02-20T03:08:17;99232.03;;;16.53;62.48
55418;BME280;41287;47.554;7.844;2023-02-20T03:11:05;99232.03;;;16.53;62.46
55418;BME280;41287;47.554;7.844;2023-02-20T03:13:34;99227.16;;;16.55;62.48
55418;BME280;41287;47.554;7.844;2023-02-20T03:16:22;99233.66;;;16.54;62.37
55418;BME280;41287;47.554;7.844;2023-02-20T03:18:51;99231.75;;;16.55;62.41
55418;BME280;41287;47.554;7.844;2023-02-20T03:21:21;99236.34;;;16.54;62.41
55418;BME280;41287;47.554;7.844;2023-02-20T03:23:54;99235.53;;;16.54;62.44
55418;BME280;41287;47.554;7.844;2023-02-20T03:26:27;99240.97;;;16.54;62.50
55418;BME280;41287;47.554;7.844;2023-02-20T03:29:20;99245.56;;;16.53;62.41
55418;BME280;41287;47.554;7.844;2023-02-20T03:31:59;99233.66;;;16.54;62.35
55418;BME280;41287;47.554;7.844;2023-02-20T03:34:47;99229.84;;;16.55;62.44
55418;BME280;41287;47.554;7.844;2023-02-20T03:37:33;99227.16;;;16.55;62.46
55418;BME280;41287;47.554;7.844;2023-02-20T03:40:18;99219.31;;;16.54;62.56
55418;BME280;41287;47.554;7.844;2023-02-20T03:43:08;99209.28;;;16.54;62.53
55418;BME280;41287;47.554;7.844;2023-02-20T03:45:56;99212.00;;;16.54;62.49
55418;BME280;41287;47.554;7.844;2023-02-20T03:48:29;99218.50;;;16.53;62.52
55418;BME280;41287;47.554;7.844;2023-02-20T03:50:59;99222.00;;;16.54;62.58
55418;BME280;41287;47.554;7.844;2023-02-20T03:53:24;99205.78;;;16.54;62.49
55418;BME280;41287;47.554;7.844;2023-02-20T03:55:51;99206.59;;;16.54;62.39
55418;BME280;41287;47.554;7.844;2023-02-20T03:58:20;99200.38;;;16.54;62.46
55418;BME280;41287;47.554;7.844;2023-02-20T04:00:49;99209.28;;;16.54;62.48
55418;BME280;41287;47.554;7.844;2023-02-20T04:03:20;99206.59;;;16.54;62.50
55418;BME280;41287;47.554;7.844;2023-02-20T04:05:49;99195.47;;;16.56;62.40
55418;BME280;41287;47.554;7.844;2023-02-20T04:08:23;99203.06;;;16.54;62.44
55418;BME280;41287;47.554;7.844;2023-02-20T04:11:25;99198.75;;;16.53;62.44
55418;BME280;41287;47.554;7.844;2023-02-20T04:13:53;99201.97;;;16.55;62.52
55418;BME280;41287;47.554;7.844;2023-02-20T04:16:21;99210.09;;;16.55;62.52
55418;BME280;41287;47.554;7.844;2023-02-20T04:18:48;99201.69;;;16.56;62.49
55418;BME280;41287;47.554;7.844;2023-02-20T04:21:32;99200.38;;;16.54;62.81
55418;BME280;41287;47.554;7.844;2023-02-20T04:24:06;99200.09;;;16.55;62.43
55418;BME280;41287;47.554;7.844;2023-02-20T04:26:32;99199.28;;;16.55;62.49
55418;BME280;41287;47.554;7.844;2023-02-20T04:29:00;99199.81;;;16.57;62.28
55418;BME280;41287;47.554;7.844;2023-02-20T04:31:26;99198.19;;;16.56;62.47
55418;BME280;41287;47.554;7.844;2023-02-20T04:33:51;99200.91;;;16.56;62.38
55418;BME280;41287;47.554;7.844;2023-02-20T04:36:17;99191.97;;;16.55;62.56
55418;BME280;41287;47.554;7.844;2023-02-20T04:38:43;99200.91;;;16.56;62.36
55418;BME280;41287;47.554;7.844;2023-02-20T04:41:08;99198.19;;;16.56;62.56
55418;BME280;41287;47.554;7.844;2023-02-20T04:43:33;99198.19;;;16.56;62.57
55418;BME280;41287;47.554;7.844;2023-02-20T04:45:59;99191.97;;;16.55;62.55
55418;BME280;41287;47.554;7.844;2023-02-20T04:48:24;99185.47;;;16.56;62.41
55418;BME280;41287;47.554;7.844;2023-02-20T04:50:49;99177.34;;;16.56;62.53
55418;BME280;41287;47.554;7.844;2023-02-20T04:53:15;99188.16;;;16.56;62.70
55418;BME280;41287;47.554;7.844;2023-02-20T04:55:42;99192.50;;;16.57;62.57
55418;BME280;41287;47.554;7.844;2023-02-20T04:58:07;99199.00;;;16.56;62.54
55418;BME280;41287;47.554;7.844;2023-02-20T05:00:33;99190.06;;;16.56;62.44
55418;BME280;41287;47.554;7.844;2023-02-20T05:02:58;99187.38;;;16.56;62.62
55418;BME280;41287;47.554;7.844;2023-02-20T05:05:28;99185.47;;;16.56;62.35
55418;BME280;41287;47.554;7.844;2023-02-20T05:08:02;99187.06;;;16.57;62.63
55418;BME280;41287;47.554;7.844;2023-02-20T05:10:31;99192.50;;;16.57;62.70
55418;BME280;41287;47.554;7.844;2023-02-20T05:12:57;99199.47;;;16.64;63.29
55418;BME280;41287;47.554;7.844;2023-02-20T05:15:23;99195.88;;;16.68;63.16
55418;BME280;41287;47.554;7.844;2023-02-20T05:17:50;99192.88;;;16.70;63.33
55418;BME280;41287;47.554;7.844;2023-02-20T05:20:16;99179.25;;;16.75;63.54
55418;BME280;41287;47.554;7.844;2023-02-20T05:22:44;99182.97;;;16.79;64.15
55418;BME280;41287;47.554;7.844;2023-02-20T05:25:10;99183.19;;;16.82;64.81
55418;BME280;41287;47.554;7.844;2023-02-20T05:27:35;99190.75;;;16.85;65.66
55418;BME280;41287;47.554;7.844;2023-02-20T05:30:01;99189.34;;;16.88;66.20
55418;BME280;41287;47.554;7.844;2023-02-20T05:32:28;99179.53;;;16.92;67.01
55418;BME280;41287;47.554;7.844;2023-02-20T05:34:54;99182.75;;;16.94;67.87
55418;BME280;41287;47.554;7.844;2023-02-20T05:37:22;99190.00;;;16.98;68.93
55418;BME280;41287;47.554;7.844;2023-02-20T05:39:48;99182.06;;;17.02;70.57
55418;BME280;41287;47.554;7.844;2023-02-20T05:42:14;99177.66;;;17.06;70.75
55418;BME280;41287;47.554;7.844;2023-02-20T05:44:40;99174.66;;;17.08;71.24
55418;BME280;41287;47.554;7.844;2023-02-20T05:47:05;99170.84;;;17.09;71.63
55418;BME280;41287;47.554;7.844;2023-02-20T05:49:34;99172.66;;;17.13;72.38
55418;BME280;41287;47.554;7.844;2023-02-20T05:52:00;99160.44;;;17.16;73.15
55418;BME280;41287;47.554;7.844;2023-02-20T05:54:26;99167.19;;;17.18;73.76
55418;BME280;41287;47.554;7.844;2023-02-20T05:56:51;99162.75;;;17.22;74.68
55418;BME280;41287;47.554;7.844;2023-02-20T05:59:19;99153.25;;;17.25;74.89
55418;BME280;41287;47.554;7.844;2023-02-20T06:01:45;99151.03;;;17.27;75.27
55418;BME280;41287;47.554;7.844;2023-02-20T06:04:10;99148.81;;;17.29;75.49
55418;BME280;41287;47.554;7.844;2023-02-20T06:06:40;99148.25;;;17.32;76.26
55418;BME280;41287;47.554;7.844;2023-02-20T06:09:08;99146.81;;;17.34;76.46
55418;BME280;41287;47.554;7.844;2023-02-20T06:11:35;99145.44;;;17.37;76.88
55418;BME280;41287;47.554;7.844;2023-02-20T06:14:00;99142.09;;;17.40;77.29
55418;BME280;41287;47.554;7.844;2023-02-20T06:16:27;99155.88;;;17.44;77.47
55418;BME280;41287;47.554;7.844;2023-02-20T06:18:54;99152.47;;;17.38;71.00
55418;BME280;41287;47.554;7.844;2023-02-20T06:21:19;99159.34;;;17.17;70.86
55418;BME280;41287;47.554;7.844;2023-02-20T06:23:47;99164.22;;;17.01;68.86
55418;BME280;41287;47.554;7.844;2023-02-20T06:26:13;99164.69;;;16.89;67.60
55418;BME280;41287;47.554;7.844;2023-02-20T06:28:39;99172.22;;;16.74;64.88
55418;BME280;41287;47.554;7.844;2023-02-20T06:31:05;99169.59;;;16.50;63.32
55418;BME280;41287;47.554;7.844;2023-02-20T06:33:31;99172.00;;;16.33;60.65
55418;BME280;41287;47.554;7.844;2023-02-20T06:35:57;99170.38;;;16.13;60.06
55418;BME280;41287;47.554;7.844;2023-02-20T06:38:23;99174.06;;;15.98;59.72
55418;BME280;41287;47.554;7.844;2023-02-20T06:40:51;99162.59;;;15.88;57.89
55418;BME280;41287;47.554;7.844;2023-02-20T06:43:16;99168.69;;;15.74;59.39
55418;BME280;41287;47.554;7.844;2023-02-20T06:45:42;99166.22;;;15.78;61.01
55418;BME280;41287;47.554;7.844;2023-02-20T06:48:08;99165.84;;;15.85;60.74
55418;BME280;41287;47.554;7.844;2023-02-20T06:50:33;99172.25;;;15.94;59.25
55418;BME280;41287;47.554;7.844;2023-02-20T06:52:58;99177.28;;;16.00;60.38
55418;BME280;41287;47.554;7.844;2023-02-20T06:55:24;99183.44;;;16.06;60.61
55418;BME280;41287;47.554;7.844;2023-02-20T06:57:49;99185.25;;;16.10;60.85
55418;BME280;41287;47.554;7.844;2023-02-20T07:00:16;99190.63;;;16.15;60.63
55418;BME280;41287;47.554;7.844;2023-02-20T07:02:41;99184.63;;;16.18;60.69
55418;BME280;41287;47.554;7.844;2023-02-20T07:05:07;99183.25;;;16.21;60.72
55418;BME280;41287;47.554;7.844;2023-02-20T07:07:34;99178.38;;;16.23;61.10
55418;BME280;41287;47.554;7.844;2023-02-20T07:09:59;99180.47;;;16.26;61.28
55418;BME280;41287;47.554;7.844;2023-02-20T07:12:28;99185.59;;;16.28;61.55
55418;BME280;41287;47.554;7.844;2023-02-20T07:14:56;99183.41;;;16.30;61.74
55418;BME280;41287;47.554;7.844;2023-02-20T07:17:22;99177.69;;;16.31;61.78
55418;BME280;41287;47.554;7.844;2023-02-20T07:19:47;99177.41;;;16.33;61.77
55418;BME280;41287;47.554;7.844;2023-02-20T07:22:12;99178.22;;;16.33;61.78
55418;BME280;41287;47.554;7.844;2023-02-20T07:24:38;99176.31;;;16.34;61.86
55418;BME280;41287;47.554;7.844;2023-02-20T07:27:06;99179.53;;;16.36;62.04
55418;BME280;41287;47.554;7.844;2023-02-20T07:29:31;99176.84;;;16.36;61.98
55418;BME280;41287;47.554;7.844;2023-02-20T07:31:57;99175.75;;;16.37;62.07
55418;BME280;41287;47.554;7.844;2023-02-20T07:34:22;99180.34;;;16.36;62.14
55418;BME280;41287;47.554;7.844;2023-02-20T07:36:47;99181.97;;;16.37;62.14
55418;BME280;41287;47.554;7.844;2023-02-20T07:39:13;99183.53;;;16.38;62.34
55418;BME280;41287;47.554;7.844;2023-02-20T07:41:38;99184.66;;;16.37;62.31
55418;BME280;41287;47.554;7.844;2023-02-20T07:44:04;99180.03;;;16.38;62.42
55418;BME280;41287;47.554;7.844;2023-02-20T07:46:30;99180.56;;;16.40;62.56
55418;BME280;41287;47.554;7.844;2023-02-20T07:49:02;99177.84;;;16.40;62.48
55418;BME280;41287;47.554;7.844;2023-02-20T07:51:28;99178.66;;;16.40;62.63
55418;BME280;41287;47.554;7.844;2023-02-20T07:53:53;99177.84;;;16.40;62.52
55418;BME280;41287;47.554;7.844;2023-02-20T07:56:19;99172.44;;;16.40;62.62
55418;BME280;41287;47.554;7.844;2023-02-20T07:58:46;99172.44;;;16.40;62.74
55418;BME280;41287;47.554;7.844;2023-02-20T08:01:12;99171.34;;;16.41;62.69
55418;BME280;41287;47.554;7.844;2023-02-20T08:03:38;99169.44;;;16.41;62.67
55418;BME280;41287;47.554;7.844;2023-02-20T08:06:03;99172.16;;;16.41;62.74
55418;BME280;41287;47.554;7.844;2023-02-20T08:08:31;99177.56;;;16.41;62.82
55418;BME280;41287;47.554;7.844;2023-02-20T08:10:57;99169.44;;;16.41;62.72
55418;BME280;41287;47.554;7.844;2023-02-20T08:13:22;99174.84;;;16.41;62.87
55418;BME280;41287;47.554;7.844;2023-02-20T08:15:48;99164.03;;;16.41;62.80
55418;BME280;41287;47.554;7.844;2023-02-20T08:18:15;99179.47;;;16.41;62.86
55418;BME280;41287;47.554;7.844;2023-02-20T08:20:41;99174.84;;;16.41;62.88
55418;BME280;41287;47.554;7.844;2023-02-20T08:23:16;99166.22;;;16.39;62.94
55418;BME280;41287;47.554;7.844;2023-02-20T08:25:41;99168.63;;;16.41;62.97
55418;BME280;41287;47.554;7.844;2023-02-20T08:28:07;99172.97;;;16.42;62.84
55418;BME280;41287;47.554;7.844;2023-02-20T08:30:32;99171.06;;;16.42;62.83
55418;BME280;41287;47.554;7.844;2023-02-20T08:32:57;99170.25;;;16.42;62.92
55418;BME280;41287;47.554;7.844;2023-02-20T08:35:23;99164.84;;;16.42;62.93
55418;BME280;41287;47.554;7.844;2023-02-20T08:37:51;99161.34;;;16.41;63.00
55418;BME280;41287;47.554;7.844;2023-02-20T08:40:16;99165.66;;;16.42;62.96
55418;BME280;41287;47.554;7.844;2023-02-20T08:42:42;99167.56;;;16.42;63.16
55418;BME280;41287;47.554;7.844;2023-02-20T08:45:07;99168.34;;;16.42;63.08
55418;BME280;41287;47.554;7.844;2023-02-20T08:47:34;99169.16;;;16.43;63.12
55418;BME280;41287;47.554;7.844;2023-02-20T08:49:59;99162.13;;;16.42;62.96
55418;BME280;41287;47.554;7.844;2023-02-20T08:52:25;99165.66;;;16.42;63.18
55418;BME280;41287;47.554;7.844;2023-02-20T08:54:50;99171.06;;;16.42;63.14
55418;BME280;41287;47.554;7.844;2023-02-20T08:57:16;99162.13;;;16.42;63.30
55418;BME280;41287;47.554;7.844;2023-02-20T08:59:42;99162.94;;;16.42;63.17
55418;BME280;41287;47.554;7.844;2023-02-20T09:02:15;99155.13;;;16.41;63.21
55418;BME280;41287;47.554;7.844;2023-02-20T09:04:43;99145.91;;;16.42;63.26
55418;BME280;41287;47.554;7.844;2023-02-20T09:07:10;99152.94;;;16.43;63.18
55418;BME280;41287;47.554;7.844;2023-02-20T09:09:36;99152.13;;;16.42;63.11
55418;BME280;41287;47.554;7.844;2023-02-20T09:12:01;99141.31;;;16.42;63.31
55418;BME280;41287;47.554;7.844;2023-02-20T09:14:27;99152.94;;;16.43;63.20
55418;BME280;41287;47.554;7.844;2023-02-20T09:16:52;99147.53;;;16.43;63.32
55418;BME280;41287;47.554;7.844;2023-02-20T09:19:18;99144.00;;;16.42;63.25
55418;BME280;41287;47.554;7.844;2023-02-20T09:21:46;99147.53;;;16.43;63.16
55418;BME280;41287;47.554;7.844;2023-02-20T09:24:11;99146.72;;;16.42;63.34
55418;BME280;41287;47.554;7.844;2023-02-20T09:26:38;99138.59;;;16.42;63.22
55418;BME280;41287;47.554;7.844;2023-02-20T09:29:04;99138.59;;;16.42;63.38
55418;BME280;41287;47.554;7.844;2023-02-20T09:31:29;99143.72;;;16.44;63.34
55418;BME280;41287;47.554;7.844;2023-02-20T09:33:54;99135.91;;;16.42;63.23
55418;BME280;41287;47.554;7.844;2023-02-20T09:36:20;99143.72;;;16.44;63.24
55418;BME280;41287;47.554;7.844;2023-02-20T09:38:45;99142.09;;;16.43;63.24
55418;BME280;41287;47.554;7.844;2023-02-20T09:42:25;99145.09;;;16.41;63.47
55418;BME280;41287;47.554;7.844;2023-02-20T09:44:26;99137.78;;;16.42;63.40
55418;BME280;41287;47.554;7.844;2023-02-20T09:47:03;99142.09;;;16.43;63.37
55418;BME280;41287;47.554;7.844;2023-02-20T09:49:33;99137.50;;;16.43;63.32
55418;BME280;41287;47.554;7.844;2023-02-20T09:52:08;99135.09;;;16.42;63.49
55418;BME280;41287;47.554;7.844;2023-02-20T09:54:39;99129.38;;;16.43;63.42
55418;BME280;41287;47.554;7.844;2023-02-20T09:57:14;99139.69;;;16.41;63.47
55418;BME280;41287;47.554;7.844;2023-02-20T09:59:46;99135.91;;;16.42;63.44
55418;BME280;41287;47.554;7.844;2023-02-20T10:02:32;99135.09;;;16.42;63.42
55418;BME280;41287;47.554;7.844;2023-02-20T10:05:03;99130.47;;;16.42;63.40
55418;BME280;41287;47.554;7.844;2023-02-20T10:07:37;99125.88;;;16.43;63.42
55418;BME280;41287;47.554;7.844;2023-02-20T10:10:25;99123.47;;;16.41;63.43
55418;BME280;41287;47.554;7.844;2023-02-20T10:23:49;99118.06;;;16.41;63.44
55418;BME280;41287;47.554;7.844;2023-02-20T10:26:31;99119.66;;;16.42;63.44
55418;BME280;41287;47.554;7.844;2023-02-20T10:29:13;99122.38;;;16.42;63.19
55418;BME280;41287;47.554;7.844;2023-02-20T10:31:52;99121.56;;;16.42;63.41
55418;BME280;41287;47.554;7.844;2023-02-20T10:34:27;99113.44;;;16.42;63.56
55418;BME280;41287;47.554;7.844;2023-02-20T10:37:01;99109.94;;;16.41;63.56
55418;BME280;41287;47.554;7.844;2023-02-20T10:39:28;99103.44;;;16.42;63.58
55418;BME280;41287;47.554;7.844;2023-02-20T10:42:04;99105.34;;;16.42;63.57
55418;BME280;41287;47.554;7.844;2023-02-20T10:44:53;99096.13;;;16.43;63.31
55418;BME280;41287;47.554;7.844;2023-02-20T10:47:44;99091.00;;;16.41;63.43
55418;BME280;41287;47.554;7.844;2023-02-20T10:50:24;99086.41;;;16.42;63.48
55418;BME280;41287;47.554;7.844;2023-02-20T10:53:18;99079.09;;;16.42;63.50
55418;BME280;41287;47.554;7.844;2023-02-20T10:55:55;99070.97;;;16.42;63.50
55418;BME280;41287;47.554;7.844;2023-02-20T10:59:17;99055.56;;;16.43;63.53
55418;BME280;41287;47.554;7.844;2023-02-20T11:01:19;99057.44;;;16.42;63.52
55418;BME280;41287;47.554;7.844;2023-02-20T11:03:51;99044.72;;;16.43;63.54
55418;BME280;41287;47.554;7.844;2023-02-20T11:06:20;99023.91;;;16.43;63.48
55418;BME280;41287;47.554;7.844;2023-02-20T11:08:47;99017.69;;;16.43;63.40
55418;BME280;41287;47.554;7.844;2023-02-20T11:11:29;99010.94;;;16.40;63.41
55418;BME280;41287;47.554;7.844;2023-02-20T11:13:58;99014.16;;;16.42;63.35
55418;BME280;41287;47.554;7.844;2023-02-20T11:16:35;99019.56;;;16.42;63.41
55418;BME280;41287;47.554;7.844;2023-02-20T11:19:10;99035.81;;;16.42;63.47
55418;BME280;41287;47.554;7.844;2023-02-20T11:21:44;99042.03;;;16.43;63.39
55418;BME280;41287;47.554;7.844;2023-02-20T11:26:49;99030.91;;;16.44;63.38
55418;BME280;41287;47.554;7.844;2023-02-20T11:29:21;99018.47;;;16.43;63.44
55418;BME280;41287;47.554;7.844;2023-02-20T11:31:47;98996.84;;;16.43;63.34
55418;BME280;41287;47.554;7.844;2023-02-20T11:34:23;98965.47;;;16.42;63.38
55418;BME280;41287;47.554;7.844;2023-02-20T11:36:51;98968.69;;;16.44;63.39
55418;BME280;41287;47.554;7.844;2023-02-20T11:39:23;98966.78;;;16.45;63.45
55418;BME280;41287;47.554;7.844;2023-02-20T11:42:04;98975.22;;;16.43;63.42
55418;BME280;41287;47.554;7.844;2023-02-20T11:44:30;98973.78;;;16.46;63.55
55418;BME280;41287;47.554;7.844;2023-02-20T11:47:20;98960.88;;;16.43;63.53
55418;BME280;41287;47.554;7.844;2023-02-20T11:49:48;98960.25;;;16.46;63.46
55418;BME280;41287;47.554;7.844;2023-02-20T11:52:20;98958.66;;;16.45;63.46
55418;BME280;41287;47.554;7.844;2023-02-20T11:54:47;98941.66;;;16.44;63.48
55418;BME280;41287;47.554;7.844;2023-02-20T11:57:34;98938.63;;;16.46;63.50
55418;BME280;41287;47.554;7.844;2023-02-20T12:02:47;98926.19;;;16.45;63.53
55418;BME280;41287;47.554;7.844;2023-02-20T12:05:14;98907.25;;;16.45;63.47
55418;BME280;41287;47.554;7.844;2023-02-20T12:13:06;98891.84;;;16.45;63.45
55418;BME280;41287;47.554;7.844;2023-02-20T12:15:33;98888.31;;;16.45;63.30
55418;BME280;41287;47.554;7.844;2023-02-20T12:21:21;98892.97;;;16.44;63.35
55418;BME280;41287;47.554;7.844;2023-02-20T12:23:57;98880.22;;;16.45;63.45
55418;BME280;41287;47.554;7.844;2023-02-20T12:26:51;98886.75;;;16.44;63.48
55418;BME280;41287;47.554;7.844;2023-02-20T12:34:35;98871.81;;;16.46;63.37
55418;BME280;41287;47.554;7.844;2023-02-20T12:37:12;98868.28;;;16.46;63.47
55418;BME280;41287;47.554;7.844;2023-02-20T12:42:41;98855.88;;;16.45;63.46
55418;BME280;41287;47.554;7.844;2023-02-20T12:47:46;98850.97;;;16.47;63.63
55418;BME280;41287;47.554;7.844;2023-02-20T12:50:39;98843.16;;;16.45;63.54
55418;BME280;41287;47.554;7.844;2023-02-20T12:53:16;98837.44;;;16.47;62.71
55418;BME280;41287;47.554;7.844;2023-02-20T12:58:34;98839.56;;;16.50;59.76
55418;BME280;41287;47.554;7.844;2023-02-20T13:01:09;98842.44;;;16.53;59.27
55418;BME280;41287;47.554;7.844;2023-02-20T13:06:04;98838.28;;;16.61;58.37
55418;BME280;41287;47.554;7.844;2023-02-20T13:08:31;98842.75;;;16.66;58.07
55418;BME280;41287;47.554;7.844;2023-02-20T13:11:04;98840.28;;;16.69;57.55
55418;BME280;41287;47.554;7.844;2023-02-20T13:13:37;98833.47;;;16.72;57.33
55418;BME280;41287;47.554;7.844;2023-02-20T13:16:16;98830.13;;;16.75;56.95
55418;BME280;41287;47.554;7.844;2023-02-20T13:18:50;98831.94;;;16.79;56.90
55418;BME280;41287;47.554;7.844;2023-02-20T13:21:22;98821.59;;;16.81;56.75
55418;BME280;41287;47.554;7.844;2023-02-20T13:23:49;98822.41;;;16.82;56.57
55418;BME280;41287;47.554;7.844;2023-02-20T13:29:11;98824.19;;;16.86;56.10
55418;BME280;41287;47.554;7.844;2023-02-20T13:42:04;98807.25;;;16.94;55.42
55418;BME280;41287;47.554;7.844;2023-02-20T13:44:48;98810.97;;;16.98;55.29
55418;BME280;41287;47.554;7.844;2023-02-20T13:47:30;98796.63;;;16.98;55.25
55418;BME280;41287;47.554;7.844;2023-02-20T13:49:57;98791.69;;;17.00;55.18
55418;BME280;41287;47.554;7.844;2023-02-20T13:52:41;98781.66;;;17.01;54.86
55418;BME280;41287;47.554;7.844;2023-02-20T13:57:53;98782.16;;;17.03;54.65
55418;BME280;41287;47.554;7.844;2023-02-20T14:03:27;98776.91;;;17.06;54.48
55418;BME280;41287;47.554;7.844;2023-02-20T14:06:15;98777.72;;;17.07;54.44
55418;BME280;41287;47.554;7.844;2023-02-20T14:08:48;98775.81;;;17.07;54.44
55418;BME280;41287;47.554;7.844;2023-02-20T14:11:33;98775.00;;;17.07;54.26
55418;BME280;41287;47.554;7.844;2023-02-20T14:14:07;98765.78;;;17.08;54.11
55418;BME280;41287;47.554;7.844;2023-02-20T14:16:37;98769.00;;;17.10;54.15
55418;BME280;41287;47.554;7.844;2023-02-20T14:19:15;98766.78;;;17.12;54.06
55418;BME280;41287;47.554;7.844;2023-02-20T14:21:43;98748.94;;;17.11;54.34
55418;BME280;41287;47.554;7.844;2023-02-20T14:24:20;98749.75;;;17.11;53.95
55418;BME280;41287;47.554;7.844;2023-02-20T14:26:46;98752.13;;;17.13;53.91
55418;BME280;41287;47.554;7.844;2023-02-20T14:31:50;98743.69;;;17.14;53.92
55418;BME280;41287;47.554;7.844;2023-02-20T14:37:09;98736.38;;;17.15;53.59
55418;BME280;41287;47.554;7.844;2023-02-20T14:40:02;98736.06;;;17.16;53.51
55418;BME280;41287;47.554;7.844;2023-02-20T14:42:29;98730.34;;;17.18;53.52